createdAt,value
2019-01-19T00:00:57.778Z,18.22
2019-01-19T00:01:57.618Z,18.23
2019-01-19T00:02:57.702Z,18.23
2019-01-19T00:03:57.755Z,18.22
2019-01-19T00:04:57.615Z,18.21
2019-01-19T00:05:57.977Z,18.21
2019-01-19T00:06:57.756Z,18.21
2019-01-19T00:07:57.655Z,18.19
2019-01-19T00:08:57.733Z,18.22
2019-01-19T00:09:57.665Z,18.21
2019-01-19T00:10:57.813Z,18.18
2019-01-19T00:11:57.720Z,18.18
2019-01-19T00:12:57.752Z,18.18
2019-01-19T00:13:57.656Z,18.16
2019-01-19T00:14:57.848Z,18.16
2019-01-19T00:15:57.836Z,18.15
2019-01-19T00:16:57.797Z,18.16
2019-01-19T00:17:57.860Z,18.16
2019-01-19T00:18:57.945Z,18.16
2019-01-19T00:19:57.779Z,18.15
2019-01-19T00:20:57.627Z,18.12
2019-01-19T00:21:58.084Z,18.13
2019-01-19T00:22:57.967Z,18.15
2019-01-19T00:23:57.694Z,18.12
2019-01-19T00:24:57.958Z,18.15
2019-01-19T00:25:57.712Z,18.12
2019-01-19T00:26:57.848Z,18.11
2019-01-19T00:27:57.958Z,18.09
2019-01-19T00:28:58.356Z,18.09
2019-01-19T00:29:57.901Z,18.11
2019-01-19T00:30:58.002Z,18.09
2019-01-19T00:31:58.297Z,18.09
2019-01-19T00:32:57.927Z,18.11
2019-01-19T00:33:57.852Z,18.09
2019-01-19T00:34:57.752Z,18.08
2019-01-19T00:35:57.666Z,18.08
2019-01-19T00:36:57.874Z,18.08
2019-01-19T00:37:57.713Z,18.09
2019-01-19T00:38:58.138Z,18.05
2019-01-19T00:39:57.814Z,18.07
2019-01-19T00:40:58.185Z,18.07
2019-01-19T00:41:59.510Z,18.07
2019-01-19T00:42:58.722Z,18.05
2019-01-19T00:43:58.537Z,18.05
2019-01-19T00:44:57.878Z,18.04
2019-01-19T00:45:58.058Z,18.04
2019-01-19T00:46:58.135Z,18.02
2019-01-19T00:47:59.506Z,18.05
2019-01-19T00:48:58.069Z,18.02
2019-01-19T00:49:57.545Z,18.02
2019-01-19T00:50:57.674Z,18.05
2019-01-19T00:51:57.840Z,18.01
2019-01-19T00:52:59.189Z,18.01
2019-01-19T00:53:57.602Z,18.01
2019-01-19T00:54:57.737Z,18.01
2019-01-19T00:55:57.857Z,18.01
2019-01-19T00:56:57.573Z,18.01
2019-01-19T00:57:57.922Z,18.01
2019-01-19T00:58:57.719Z,18
2019-01-19T00:59:57.589Z,18
2019-01-19T01:00:58.007Z,17.98
2019-01-19T01:01:57.791Z,17.98
2019-01-19T01:02:57.583Z,17.98
2019-01-19T01:03:57.763Z,17.97
2019-01-19T01:04:57.886Z,18
2019-01-19T01:05:57.617Z,17.94
2019-01-19T01:06:57.696Z,17.97
2019-01-19T01:07:57.736Z,17.95
2019-01-19T01:08:59.448Z,17.94
2019-01-19T01:09:57.708Z,17.95
2019-01-19T01:10:57.955Z,17.94
2019-01-19T01:11:58.075Z,17.94
2019-01-19T01:12:57.672Z,17.94
2019-01-19T01:13:58.159Z,17.97
2019-01-19T01:14:57.777Z,17.94
2019-01-19T01:15:57.954Z,17.94
2019-01-19T01:16:57.759Z,17.94
2019-01-19T01:17:59.448Z,17.91
2019-01-19T01:18:58.124Z,17.93
2019-01-19T01:19:58.015Z,17.93
2019-01-19T01:20:57.810Z,17.91
2019-01-19T01:21:58.108Z,17.91
2019-01-19T01:22:58.028Z,17.89
2019-01-19T01:23:57.825Z,17.93
2019-01-19T01:24:57.865Z,17.89
2019-01-19T01:25:58.221Z,17.89
2019-01-19T01:26:57.841Z,17.88
2019-01-19T01:27:57.856Z,17.88
2019-01-19T01:28:57.530Z,17.88
2019-01-19T01:29:57.867Z,17.88
2019-01-19T01:30:57.739Z,17.89
2019-01-19T01:31:58.067Z,17.87
2019-01-19T01:32:57.738Z,17.88
2019-01-19T01:33:57.575Z,17.88
2019-01-19T01:34:58.024Z,17.88
2019-01-19T01:35:57.826Z,17.85
2019-01-19T01:36:57.941Z,17.87
2019-01-19T01:37:57.551Z,17.85
2019-01-19T01:38:57.914Z,17.85
2019-01-19T01:39:57.764Z,17.82
2019-01-19T01:40:58.084Z,17.85
2019-01-19T01:41:58.144Z,17.82
2019-01-19T01:42:57.989Z,17.84
2019-01-19T01:43:57.510Z,17.84
2019-01-19T01:44:57.646Z,17.85
2019-01-19T01:45:57.733Z,17.82
2019-01-19T01:46:57.765Z,17.82
2019-01-19T01:47:57.789Z,17.84
2019-01-19T01:48:57.725Z,17.81
2019-01-19T01:49:57.445Z,17.81
2019-01-19T01:50:57.648Z,17.81
2019-01-19T01:51:57.711Z,17.82
2019-01-19T01:52:57.747Z,17.81
2019-01-19T01:53:57.729Z,17.8
2019-01-19T01:54:57.762Z,17.81
2019-01-19T01:55:57.723Z,17.8
2019-01-19T01:56:57.618Z,17.8
2019-01-19T01:57:57.614Z,17.78
2019-01-19T01:58:57.778Z,17.8
2019-01-19T01:59:57.757Z,17.77
2019-01-19T02:00:57.738Z,17.8
2019-01-19T02:01:57.804Z,17.78
2019-01-19T02:02:57.833Z,17.77
2019-01-19T02:03:57.938Z,17.77
2019-01-19T02:04:58.409Z,17.77
2019-01-19T02:05:58.632Z,17.77
2019-01-19T02:06:57.828Z,17.76
2019-01-19T02:07:57.938Z,17.77
2019-01-19T02:08:57.986Z,17.76
2019-01-19T02:09:57.709Z,17.74
2019-01-19T02:10:57.734Z,17.76
2019-01-19T02:11:57.599Z,17.77
2019-01-19T02:12:57.867Z,17.76
2019-01-19T02:13:57.731Z,17.76
2019-01-19T02:14:57.889Z,17.74
2019-01-19T02:15:57.699Z,17.73
2019-01-19T02:16:57.720Z,17.7
2019-01-19T02:17:57.500Z,17.73
2019-01-19T02:18:57.750Z,17.74
2019-01-19T02:19:57.695Z,17.71
2019-01-19T02:20:57.957Z,17.73
2019-01-19T02:21:57.946Z,17.7
2019-01-19T02:22:57.661Z,17.71
2019-01-19T02:23:57.582Z,17.7
2019-01-19T02:24:57.548Z,17.71
2019-01-19T02:25:57.860Z,17.7
2019-01-19T02:26:57.738Z,17.7
2019-01-19T02:27:57.891Z,17.67
2019-01-19T02:28:57.673Z,17.68
2019-01-19T02:29:57.824Z,17.7
2019-01-19T02:30:57.653Z,17.68
2019-01-19T02:31:57.692Z,17.67
2019-01-19T02:32:57.731Z,17.67
2019-01-19T02:33:57.739Z,17.66
2019-01-19T02:34:57.965Z,17.68
2019-01-19T02:35:57.570Z,17.66
2019-01-19T02:36:57.567Z,17.67
2019-01-19T02:37:57.972Z,17.67
2019-01-19T02:38:57.837Z,17.66
2019-01-19T02:39:57.832Z,17.68
2019-01-19T02:40:57.761Z,17.67
2019-01-19T02:41:57.628Z,17.66
2019-01-19T02:42:57.737Z,17.67
2019-01-19T02:43:57.887Z,17.66
2019-01-19T02:44:57.570Z,17.63
2019-01-19T02:45:58.352Z,17.63
2019-01-19T02:46:58.121Z,17.66
2019-01-19T02:47:57.848Z,17.64
2019-01-19T02:48:57.935Z,17.64
2019-01-19T02:49:57.716Z,17.63
2019-01-19T02:50:57.640Z,17.64
2019-01-19T02:51:57.768Z,17.61
2019-01-19T02:52:57.879Z,17.63
2019-01-19T02:53:58.033Z,17.63
2019-01-19T02:54:57.722Z,17.63
2019-01-19T02:55:58.380Z,17.61
2019-01-19T02:56:57.835Z,17.6
2019-01-19T02:57:58.158Z,17.63
2019-01-19T02:58:57.689Z,17.61
2019-01-19T02:59:59.551Z,17.6
2019-01-19T03:00:57.557Z,17.59
2019-01-19T03:01:57.631Z,17.57
2019-01-19T03:02:57.711Z,17.6
2019-01-19T03:03:57.468Z,17.6
2019-01-19T03:04:58.663Z,17.59
2019-01-19T03:05:57.667Z,17.6
2019-01-19T03:06:57.573Z,17.57
2019-01-19T03:07:57.649Z,17.57
2019-01-19T03:08:57.736Z,17.56
2019-01-19T03:09:57.994Z,17.6
2019-01-19T03:10:58.031Z,17.57
2019-01-19T03:11:57.643Z,17.57
2019-01-19T03:12:57.607Z,17.57
2019-01-19T03:13:57.902Z,17.57
2019-01-19T03:14:58.016Z,17.56
2019-01-19T03:15:58.098Z,17.57
2019-01-19T03:16:57.630Z,17.56
2019-01-19T03:17:57.921Z,17.56
2019-01-19T03:18:57.644Z,17.56
2019-01-19T03:19:57.643Z,17.54
2019-01-19T03:20:57.847Z,17.54
2019-01-19T03:21:57.644Z,17.54
2019-01-19T03:22:58.033Z,17.56
2019-01-19T03:23:57.681Z,17.5
2019-01-19T03:24:57.475Z,17.52
2019-01-19T03:25:57.689Z,17.53
2019-01-19T03:26:57.993Z,17.53
2019-01-19T03:27:57.690Z,17.52
2019-01-19T03:28:57.857Z,17.49
2019-01-19T03:29:57.757Z,17.54
2019-01-19T03:30:57.894Z,17.52
2019-01-19T03:31:57.704Z,17.53
2019-01-19T03:32:58.479Z,17.52
2019-01-19T03:33:57.745Z,17.52
2019-01-19T03:34:57.680Z,17.5
2019-01-19T03:36:04.966Z,17.52
2019-01-19T03:36:57.640Z,17.49
2019-01-19T03:37:57.658Z,17.5
2019-01-19T03:38:57.643Z,17.49
2019-01-19T03:39:57.632Z,17.49
2019-01-19T03:40:57.555Z,17.5
2019-01-19T03:41:57.717Z,17.5
2019-01-19T03:42:57.490Z,17.5
2019-01-19T03:43:58.252Z,17.48
2019-01-19T03:44:57.639Z,17.48
2019-01-19T03:45:57.640Z,17.49
2019-01-19T03:46:57.929Z,17.46
2019-01-19T03:47:57.759Z,17.46
2019-01-19T03:48:57.786Z,17.46
2019-01-19T03:49:57.930Z,17.46
2019-01-19T03:50:57.814Z,17.48
2019-01-19T03:51:58.087Z,17.45
2019-01-19T03:52:57.944Z,17.46
2019-01-19T03:53:57.775Z,17.48
2019-01-19T03:54:57.627Z,17.45
2019-01-19T03:55:57.667Z,17.46
2019-01-19T03:56:57.678Z,17.43
2019-01-19T03:57:57.575Z,17.43
2019-01-19T03:58:57.664Z,17.45
2019-01-19T03:59:57.822Z,17.43
2019-01-19T04:00:57.937Z,17.43
2019-01-19T04:01:57.796Z,17.43
2019-01-19T04:02:57.634Z,17.45
2019-01-19T04:03:57.870Z,17.42
2019-01-19T04:04:57.758Z,17.43
2019-01-19T04:05:57.704Z,17.42
2019-01-19T04:06:57.756Z,17.4
2019-01-19T04:07:57.605Z,17.42
2019-01-19T04:08:57.978Z,17.42
2019-01-19T04:09:57.506Z,17.4
2019-01-19T04:10:59.509Z,17.43
2019-01-19T04:11:58.697Z,17.38
2019-01-19T04:12:57.928Z,17.4
2019-01-19T04:13:57.914Z,17.38
2019-01-19T04:14:58.646Z,17.39
2019-01-19T04:15:57.711Z,17.39
2019-01-19T04:16:57.933Z,17.42
2019-01-19T04:17:57.936Z,17.4
2019-01-19T04:18:57.779Z,17.39
2019-01-19T04:19:57.887Z,17.39
2019-01-19T04:20:57.685Z,17.35
2019-01-19T04:21:57.588Z,17.38
2019-01-19T04:22:58.000Z,17.38
2019-01-19T04:23:57.642Z,17.36
2019-01-19T04:24:57.797Z,17.38
2019-01-19T04:25:57.568Z,17.36
2019-01-19T04:26:57.751Z,17.35
2019-01-19T04:27:57.869Z,17.36
2019-01-19T04:28:57.776Z,17.38
2019-01-19T04:29:59.550Z,17.33
2019-01-19T04:30:57.468Z,17.33
2019-01-19T04:31:57.987Z,17.35
2019-01-19T04:32:57.629Z,17.32
2019-01-19T04:33:57.839Z,17.35
2019-01-19T04:34:57.629Z,17.35
2019-01-19T04:35:58.105Z,17.35
2019-01-19T04:36:57.780Z,17.33
2019-01-19T04:37:57.583Z,17.32
2019-01-19T04:38:57.887Z,17.31
2019-01-19T04:39:57.655Z,17.32
2019-01-19T04:40:58.142Z,17.32
2019-01-19T04:41:57.635Z,17.33
2019-01-19T04:42:57.737Z,17.33
2019-01-19T04:43:57.930Z,17.31
2019-01-19T04:44:57.730Z,17.33
2019-01-19T04:45:57.579Z,17.33
2019-01-19T04:46:57.761Z,17.32
2019-01-19T04:47:57.966Z,17.33
2019-01-19T04:48:59.378Z,17.35
2019-01-19T04:49:57.752Z,17.35
2019-01-19T04:50:57.978Z,17.38
2019-01-19T04:51:57.839Z,17.35
2019-01-19T04:52:57.662Z,17.38
2019-01-19T04:53:57.620Z,17.38
2019-01-19T04:54:57.857Z,17.4
2019-01-19T04:55:57.745Z,17.4
2019-01-19T04:56:57.984Z,17.42
2019-01-19T04:57:57.652Z,17.4
2019-01-19T04:58:57.944Z,17.43
2019-01-19T04:59:58.587Z,17.46
2019-01-19T05:00:57.796Z,17.48
2019-01-19T05:01:57.944Z,17.48
2019-01-19T05:02:57.583Z,17.5
2019-01-19T05:03:57.918Z,17.52
2019-01-19T05:04:57.986Z,17.52
2019-01-19T05:05:58.027Z,17.53
2019-01-19T05:06:57.398Z,17.56
2019-01-19T05:07:57.854Z,17.56
2019-01-19T05:08:57.809Z,17.59
2019-01-19T05:09:57.830Z,17.61
2019-01-19T05:10:57.738Z,17.64
2019-01-19T05:11:57.686Z,17.63
2019-01-19T05:12:57.785Z,17.66
2019-01-19T05:13:57.670Z,17.67
2019-01-19T05:14:57.743Z,17.67
2019-01-19T05:15:57.481Z,17.7
2019-01-19T05:16:57.813Z,17.73
2019-01-19T05:17:57.658Z,17.74
2019-01-19T05:18:57.416Z,17.76
2019-01-19T05:19:57.694Z,17.77
2019-01-19T05:20:57.641Z,17.78
2019-01-19T05:21:57.747Z,17.81
2019-01-19T05:22:57.722Z,17.82
2019-01-19T05:23:57.803Z,17.85
2019-01-19T05:24:57.685Z,17.87
2019-01-19T05:25:57.544Z,17.88
2019-01-19T05:26:57.574Z,17.89
2019-01-19T05:27:57.823Z,17.93
2019-01-19T05:28:57.399Z,17.91
2019-01-19T05:29:57.604Z,17.95
2019-01-19T05:30:59.579Z,17.97
2019-01-19T05:31:57.720Z,17.97
2019-01-19T05:32:58.099Z,18.01
2019-01-19T05:33:57.657Z,18
2019-01-19T05:34:57.466Z,18.04
2019-01-19T05:35:58.033Z,18.04
2019-01-19T05:36:57.530Z,18.07
2019-01-19T05:37:57.601Z,18.07
2019-01-19T05:38:57.916Z,18.09
2019-01-19T05:39:57.829Z,18.12
2019-01-19T05:40:57.713Z,18.11
2019-01-19T05:41:57.587Z,18.13
2019-01-19T05:42:57.616Z,18.16
2019-01-19T05:43:58.053Z,18.15
2019-01-19T05:44:57.441Z,18.19
2019-01-19T05:45:57.687Z,18.19
2019-01-19T05:46:57.910Z,18.21
2019-01-19T05:47:57.707Z,18.22
2019-01-19T05:48:58.113Z,18.22
2019-01-19T05:49:57.598Z,18.25
2019-01-19T05:50:57.494Z,18.26
2019-01-19T05:51:57.592Z,18.28
2019-01-19T05:52:58.010Z,18.28
2019-01-19T05:53:57.800Z,18.29
2019-01-19T05:54:57.817Z,18.32
2019-01-19T05:55:57.934Z,18.35
2019-01-19T05:56:58.031Z,18.33
2019-01-19T05:57:57.853Z,18.35
2019-01-19T05:58:59.449Z,18.39
2019-01-19T05:59:57.677Z,18.37
2019-01-19T06:00:57.762Z,18.37
2019-01-19T06:01:57.503Z,18.37
2019-01-19T06:02:57.684Z,18.37
2019-01-19T06:03:57.589Z,18.41
2019-01-19T06:04:57.634Z,18.43
2019-01-19T06:05:57.983Z,18.41
2019-01-19T06:06:57.694Z,18.44
2019-01-19T06:07:57.387Z,18.44
2019-01-19T06:08:58.038Z,18.47
2019-01-19T06:09:59.402Z,18.46
2019-01-19T06:10:58.960Z,18.49
2019-01-19T06:11:58.057Z,18.49
2019-01-19T06:12:57.704Z,18.5
2019-01-19T06:13:57.487Z,18.5
2019-01-19T06:14:57.641Z,18.51
2019-01-19T06:15:57.407Z,18.53
2019-01-19T06:16:57.787Z,18.57
2019-01-19T06:17:57.679Z,18.56
2019-01-19T06:18:57.920Z,18.58
2019-01-19T06:19:57.524Z,18.57
2019-01-19T06:20:58.011Z,18.56
2019-01-19T06:21:57.448Z,18.57
2019-01-19T06:22:57.836Z,18.57
2019-01-19T06:23:57.821Z,18.62
2019-01-19T06:24:57.698Z,18.58
2019-01-19T06:25:57.558Z,18.62
2019-01-19T06:26:57.822Z,18.63
2019-01-19T06:27:57.642Z,18.62
2019-01-19T06:28:59.353Z,18.63
2019-01-19T06:29:57.622Z,18.64
2019-01-19T06:30:57.437Z,18.66
2019-01-19T06:31:57.814Z,18.66
2019-01-19T06:32:57.906Z,18.67
2019-01-19T06:33:57.579Z,18.67
2019-01-19T06:34:59.310Z,18.68
2019-01-19T06:35:57.814Z,18.68
2019-01-19T06:36:57.705Z,18.7
2019-01-19T06:37:57.503Z,18.73
2019-01-19T06:38:57.548Z,18.7
2019-01-19T06:39:57.657Z,18.71
2019-01-19T06:40:57.829Z,18.71
2019-01-19T06:41:58.148Z,18.74
2019-01-19T06:42:58.142Z,18.73
2019-01-19T06:43:57.384Z,18.73
2019-01-19T06:44:57.535Z,18.74
2019-01-19T06:45:57.551Z,18.77
2019-01-19T06:46:58.008Z,18.77
2019-01-19T06:47:58.768Z,18.75
2019-01-19T06:48:57.797Z,18.78
2019-01-19T06:49:57.786Z,18.78
2019-01-19T06:50:57.702Z,18.8
2019-01-19T06:51:57.700Z,18.81
2019-01-19T06:52:57.840Z,18.78
2019-01-19T06:54:02.210Z,18.81
2019-01-19T06:54:57.721Z,18.81
2019-01-19T06:55:57.640Z,18.83
2019-01-19T06:56:57.675Z,18.83
2019-01-19T06:57:57.770Z,18.84
2019-01-19T06:58:57.658Z,18.85
2019-01-19T06:59:57.667Z,18.84
2019-01-19T07:00:57.798Z,18.84
2019-01-19T07:01:57.634Z,18.83
2019-01-19T07:02:57.406Z,18.85
2019-01-19T07:03:57.429Z,18.85
2019-01-19T07:04:57.638Z,18.87
2019-01-19T07:05:57.814Z,18.84
2019-01-19T07:07:03.325Z,18.85
2019-01-19T07:07:57.764Z,18.87
2019-01-19T07:08:57.916Z,18.84
2019-01-19T07:09:57.512Z,18.87
2019-01-19T07:10:57.655Z,18.88
2019-01-19T07:11:57.544Z,18.87
2019-01-19T07:12:57.968Z,18.87
2019-01-19T07:13:59.362Z,18.87
2019-01-19T07:14:57.550Z,18.85
2019-01-19T07:15:57.914Z,18.9
2019-01-19T07:16:57.900Z,18.9
2019-01-19T07:17:57.877Z,18.88
2019-01-19T07:18:57.819Z,18.87
2019-01-19T07:19:58.501Z,18.88
2019-01-19T07:20:57.654Z,18.88
2019-01-19T07:21:58.484Z,18.88
2019-01-19T07:22:57.998Z,18.87
2019-01-19T07:23:57.944Z,18.9
2019-01-19T07:24:57.621Z,18.9
2019-01-19T07:25:57.739Z,18.91
2019-01-19T07:26:58.289Z,18.9
2019-01-19T07:27:57.915Z,18.9
2019-01-19T07:28:57.451Z,18.9
2019-01-19T07:29:57.552Z,18.9
2019-01-19T07:30:57.563Z,18.9
2019-01-19T07:31:57.509Z,18.9
2019-01-19T07:32:57.729Z,18.88
2019-01-19T07:33:57.613Z,18.91
2019-01-19T07:34:57.826Z,18.9
2019-01-19T07:35:57.742Z,18.88
2019-01-19T07:36:57.881Z,18.9
2019-01-19T07:37:57.673Z,18.9
2019-01-19T07:38:57.544Z,18.9
2019-01-19T07:39:57.790Z,18.88
2019-01-19T07:40:57.692Z,18.91
2019-01-19T07:41:57.848Z,18.92
2019-01-19T07:42:57.728Z,18.9
2019-01-19T07:43:58.286Z,18.9
2019-01-19T07:44:57.815Z,18.88
2019-01-19T07:45:57.543Z,18.88
2019-01-19T07:46:58.136Z,18.92
2019-01-19T07:47:58.152Z,18.92
2019-01-19T07:48:57.996Z,18.91
2019-01-19T07:49:57.800Z,18.92
2019-01-19T07:50:57.830Z,18.92
2019-01-19T07:51:57.631Z,18.92
2019-01-19T07:52:58.021Z,18.95
2019-01-19T07:53:57.442Z,18.92
2019-01-19T07:54:58.770Z,18.97
2019-01-19T07:55:57.883Z,18.94
2019-01-19T07:56:57.956Z,18.95
2019-01-19T07:57:57.966Z,18.94
2019-01-19T07:58:57.660Z,18.94
2019-01-19T07:59:57.605Z,18.95
2019-01-19T08:00:57.473Z,18.98
2019-01-19T08:01:57.480Z,18.98
2019-01-19T08:02:57.598Z,18.98
2019-01-19T08:03:57.454Z,18.98
2019-01-19T08:04:57.566Z,18.97
2019-01-19T08:05:57.661Z,18.98
2019-01-19T08:06:57.571Z,18.99
2019-01-19T08:07:57.688Z,18.99
2019-01-19T08:08:57.956Z,19.01
2019-01-19T08:09:57.891Z,18.99
2019-01-19T08:10:57.454Z,19.01
2019-01-19T08:11:57.463Z,19.02
2019-01-19T08:12:58.424Z,19.01
2019-01-19T08:13:57.803Z,19.02
2019-01-19T08:14:57.647Z,19.02
2019-01-19T08:15:57.719Z,19.03
2019-01-19T08:16:57.572Z,19.03
2019-01-19T08:17:57.310Z,19.03
2019-01-19T08:18:57.654Z,19.05
2019-01-19T08:19:57.810Z,19.06
2019-01-19T08:20:58.198Z,19.05
2019-01-19T08:21:57.885Z,19.05
2019-01-19T08:22:57.601Z,19.06
2019-01-19T08:23:57.984Z,19.05
2019-01-19T08:24:57.443Z,19.06
2019-01-19T08:25:57.523Z,19.08
2019-01-19T08:26:58.010Z,19.09
2019-01-19T08:27:57.699Z,19.11
2019-01-19T08:28:57.893Z,19.13
2019-01-19T08:29:58.035Z,19.13
2019-01-19T08:30:57.715Z,19.15
2019-01-19T08:31:57.546Z,19.15
2019-01-19T08:32:58.026Z,19.15
2019-01-19T08:33:57.451Z,19.16
2019-01-19T08:34:57.753Z,19.2
2019-01-19T08:35:57.823Z,19.18
2019-01-19T08:36:57.701Z,19.18
2019-01-19T08:37:57.990Z,19.19
2019-01-19T08:38:57.799Z,19.2
2019-01-19T08:39:57.446Z,19.18
2019-01-19T08:40:57.533Z,19.18
2019-01-19T08:41:57.839Z,19.19
2019-01-19T08:42:57.362Z,19.18
2019-01-19T08:43:57.723Z,19.16
2019-01-19T08:44:57.830Z,19.19
2019-01-19T08:45:57.514Z,19.18
2019-01-19T08:46:57.733Z,19.2
2019-01-19T08:47:57.808Z,19.19
2019-01-19T08:48:57.365Z,19.2
2019-01-19T08:49:57.659Z,19.22
2019-01-19T08:50:57.641Z,19.22
2019-01-19T08:51:57.677Z,19.19
2019-01-19T08:52:57.338Z,19.2
2019-01-19T08:53:57.597Z,19.23
2019-01-19T08:54:58.657Z,19.22
2019-01-19T08:55:57.845Z,19.19
2019-01-19T08:56:58.107Z,19.22
2019-01-19T08:57:57.535Z,19.23
2019-01-19T08:58:57.410Z,19.2
2019-01-19T08:59:57.510Z,19.18
2019-01-19T09:00:57.922Z,19.2
2019-01-19T09:01:57.442Z,19.2
2019-01-19T09:02:58.460Z,19.23
2019-01-19T09:03:59.421Z,19.23
2019-01-19T09:04:57.499Z,19.23
2019-01-19T09:05:58.039Z,19.23
2019-01-19T09:06:57.473Z,19.22
2019-01-19T09:07:57.408Z,19.26
2019-01-19T09:08:57.450Z,19.26
2019-01-19T09:09:57.456Z,19.25
2019-01-19T09:10:57.204Z,19.26
2019-01-19T09:11:57.798Z,19.25
2019-01-19T09:12:57.893Z,19.25
2019-01-19T09:13:57.418Z,19.26
2019-01-19T09:14:57.375Z,19.25
2019-01-19T09:15:57.443Z,19.25
2019-01-19T09:16:58.430Z,19.26
2019-01-19T09:17:58.332Z,19.26
2019-01-19T09:18:57.785Z,19.27
2019-01-19T09:19:57.790Z,19.25
2019-01-19T09:20:57.522Z,19.26
2019-01-19T09:21:57.540Z,19.27
2019-01-19T09:22:57.911Z,19.27
2019-01-19T09:23:58.394Z,19.26
2019-01-19T09:24:57.622Z,19.26
2019-01-19T09:25:58.421Z,19.27
2019-01-19T09:26:57.883Z,19.3
2019-01-19T09:27:58.044Z,19.27
2019-01-19T09:28:57.507Z,19.29
2019-01-19T09:29:57.867Z,19.29
2019-01-19T09:30:57.572Z,19.27
2019-01-19T09:31:57.930Z,19.27
2019-01-19T09:32:57.868Z,19.29
2019-01-19T09:33:57.473Z,19.29
2019-01-19T09:34:57.604Z,19.29
2019-01-19T09:35:57.574Z,19.27
2019-01-19T09:36:57.467Z,19.32
2019-01-19T09:37:58.881Z,19.3
2019-01-19T09:38:58.074Z,19.33
2019-01-19T09:39:57.916Z,19.3
2019-01-19T09:41:01.447Z,19.32
2019-01-19T09:41:57.390Z,19.32
2019-01-19T09:42:57.792Z,19.3
2019-01-19T09:43:58.207Z,19.32
2019-01-19T09:44:57.509Z,19.32
2019-01-19T09:45:57.444Z,19.32
2019-01-19T09:46:58.217Z,19.33
2019-01-19T09:47:58.781Z,19.33
2019-01-19T09:48:57.719Z,19.33
2019-01-19T09:49:57.593Z,19.32
2019-01-19T09:50:58.070Z,19.33
2019-01-19T09:51:57.711Z,19.33
2019-01-19T09:52:58.321Z,19.35
2019-01-19T09:53:57.500Z,19.35
2019-01-19T09:55:00.207Z,19.36
2019-01-19T09:55:57.739Z,19.35
2019-01-19T09:56:57.756Z,19.35
2019-01-19T09:57:58.085Z,19.35
2019-01-19T09:58:58.158Z,19.35
2019-01-19T09:59:57.894Z,19.36
2019-01-19T10:01:00.198Z,19.36
2019-01-19T10:01:57.964Z,19.37
2019-01-19T10:02:57.768Z,19.37
2019-01-19T10:03:57.742Z,19.37
2019-01-19T10:04:57.729Z,19.4
2019-01-19T10:05:57.682Z,19.39
2019-01-19T10:06:57.827Z,19.37
2019-01-19T10:07:57.476Z,19.39
2019-01-19T10:08:57.313Z,19.39
2019-01-19T10:09:57.544Z,19.4
2019-01-19T10:10:57.717Z,19.4
2019-01-19T10:11:59.573Z,19.39
2019-01-19T10:12:57.486Z,19.39
2019-01-19T10:13:57.885Z,19.4
2019-01-19T10:14:57.912Z,19.37
2019-01-19T10:15:57.805Z,19.39
2019-01-19T10:16:57.290Z,19.4
2019-01-19T10:17:57.486Z,19.37
2019-01-19T10:18:57.570Z,19.42
2019-01-19T10:19:57.438Z,19.42
2019-01-19T10:20:57.376Z,19.37
2019-01-19T10:21:57.493Z,19.39
2019-01-19T10:22:57.676Z,19.39
2019-01-19T10:23:57.471Z,19.37
2019-01-19T10:24:57.512Z,19.4
2019-01-19T10:25:57.610Z,19.42
2019-01-19T10:26:57.872Z,19.39
2019-01-19T10:27:57.737Z,19.42
2019-01-19T10:28:57.642Z,19.42
2019-01-19T10:29:57.292Z,19.39
2019-01-19T10:30:57.786Z,19.39
2019-01-19T10:31:57.762Z,19.37
2019-01-19T10:32:57.739Z,19.4
2019-01-19T10:33:57.675Z,19.4
2019-01-19T10:34:57.625Z,19.42
2019-01-19T10:35:57.705Z,19.43
2019-01-19T10:36:58.293Z,19.43
2019-01-19T10:37:58.107Z,19.43
2019-01-19T10:38:57.701Z,19.46
2019-01-19T10:39:57.702Z,19.46
2019-01-19T10:40:58.078Z,19.46
2019-01-19T10:41:57.682Z,19.46
2019-01-19T10:42:57.447Z,19.47
2019-01-19T10:43:57.712Z,19.47
2019-01-19T10:44:57.764Z,19.52
2019-01-19T10:45:57.997Z,19.49
2019-01-19T10:46:57.953Z,19.54
2019-01-19T10:47:57.717Z,19.52
2019-01-19T10:48:57.518Z,19.53
2019-01-19T10:49:57.796Z,19.52
2019-01-19T10:50:57.496Z,19.53
2019-01-19T10:51:59.915Z,19.52
2019-01-19T10:52:57.599Z,19.56
2019-01-19T10:53:57.761Z,19.56
2019-01-19T10:54:57.717Z,19.58
2019-01-19T10:55:57.874Z,19.57
2019-01-19T10:56:57.544Z,19.57
2019-01-19T10:57:57.437Z,19.58
2019-01-19T10:58:57.892Z,19.58
2019-01-19T10:59:57.687Z,19.6
2019-01-19T11:00:57.728Z,19.61
2019-01-19T11:01:57.997Z,19.61
2019-01-19T11:02:58.095Z,19.61
2019-01-19T11:03:57.408Z,19.61
2019-01-19T11:04:58.451Z,19.6
2019-01-19T11:05:57.747Z,19.63
2019-01-19T11:06:57.848Z,19.61
2019-01-19T11:08:04.361Z,19.63
2019-01-19T11:08:57.327Z,19.64
2019-01-19T11:09:58.443Z,19.64
2019-01-19T11:10:57.910Z,19.64
2019-01-19T11:11:57.416Z,19.65
2019-01-19T11:12:58.084Z,19.64
2019-01-19T11:13:57.425Z,19.67
2019-01-19T11:14:59.623Z,19.64
2019-01-19T11:15:57.533Z,19.64
2019-01-19T11:16:57.699Z,19.67
2019-01-19T11:17:57.582Z,19.7
2019-01-19T11:18:57.980Z,19.68
2019-01-19T11:19:57.353Z,19.68
2019-01-19T11:20:57.879Z,19.68
2019-01-19T11:21:57.429Z,19.7
2019-01-19T11:22:58.206Z,19.74
2019-01-19T11:23:57.462Z,19.74
2019-01-19T11:24:57.260Z,19.8
2019-01-19T11:25:58.024Z,19.78
2019-01-19T11:26:57.950Z,19.81
2019-01-19T11:27:58.007Z,19.8
2019-01-19T11:28:58.069Z,19.81
2019-01-19T11:29:57.449Z,19.8
2019-01-19T11:30:57.777Z,19.8
2019-01-19T11:31:58.499Z,19.81
2019-01-19T11:32:58.295Z,19.78
2019-01-19T11:33:57.541Z,19.78
2019-01-19T11:34:57.480Z,19.8
2019-01-19T11:35:57.659Z,19.82
2019-01-19T11:36:57.878Z,19.82
2019-01-19T11:37:57.446Z,19.81
2019-01-19T11:38:57.765Z,19.84
2019-01-19T11:39:57.911Z,19.84
2019-01-19T11:40:58.015Z,19.84
2019-01-19T11:41:57.945Z,19.86
2019-01-19T11:42:58.169Z,19.82
2019-01-19T11:43:58.105Z,19.84
2019-01-19T11:44:57.432Z,19.84
2019-01-19T11:45:57.854Z,19.85
2019-01-19T11:46:58.273Z,19.88
2019-01-19T11:47:57.427Z,19.86
2019-01-19T11:48:57.223Z,19.86
2019-01-19T11:49:57.790Z,19.88
2019-01-19T11:50:57.737Z,19.89
2019-01-19T11:51:57.688Z,19.89
2019-01-19T11:52:57.700Z,19.88
2019-01-19T11:53:57.723Z,19.89
2019-01-19T11:54:57.761Z,19.92
2019-01-19T11:55:58.099Z,19.95
2019-01-19T11:56:57.559Z,19.91
2019-01-19T11:57:57.824Z,19.96
2019-01-19T11:58:58.071Z,19.98
2019-01-19T11:59:57.479Z,19.95
2019-01-19T12:00:57.575Z,19.96
2019-01-19T12:01:57.404Z,19.98
2019-01-19T12:02:57.556Z,19.96
2019-01-19T12:03:57.852Z,19.99
2019-01-19T12:04:57.283Z,19.99
2019-01-19T12:05:57.896Z,19.98
2019-01-19T12:06:58.650Z,19.98
2019-01-19T12:07:58.477Z,20.01
2019-01-19T12:08:57.985Z,20.01
2019-01-19T12:09:58.007Z,20.02
2019-01-19T12:10:57.625Z,19.98
2019-01-19T12:11:58.465Z,20.02
2019-01-19T12:12:59.125Z,20.01
2019-01-19T12:13:58.200Z,20.01
2019-01-19T12:14:57.432Z,20.04
2019-01-19T12:15:57.370Z,20.05
2019-01-19T12:16:57.319Z,20.07
2019-01-19T12:17:58.136Z,20.04
2019-01-19T12:18:57.896Z,20.04
2019-01-19T12:19:57.770Z,20.05
2019-01-19T12:20:58.568Z,20.04
2019-01-19T12:21:57.405Z,20.07
2019-01-19T12:22:57.835Z,20.07
2019-01-19T12:23:57.703Z,20.07
2019-01-19T12:24:58.182Z,20.07
2019-01-19T12:25:58.157Z,20.07
2019-01-19T12:26:57.459Z,20.07
2019-01-19T12:27:58.493Z,20.08
2019-01-19T12:28:57.520Z,20.08
2019-01-19T12:29:57.677Z,20.09
2019-01-19T12:30:57.847Z,20.11
2019-01-19T12:31:57.982Z,20.09
2019-01-19T12:32:57.921Z,20.09
2019-01-19T12:33:58.445Z,20.09
2019-01-19T12:34:58.941Z,20.11
2019-01-19T12:35:58.588Z,20.12
2019-01-19T12:36:57.858Z,20.09
2019-01-19T12:37:57.681Z,20.11
2019-01-19T12:38:57.925Z,20.11
2019-01-19T12:39:57.995Z,20.08
2019-01-19T12:40:57.710Z,20.11
2019-01-19T12:41:58.249Z,20.09
2019-01-19T12:42:57.386Z,20.11
2019-01-19T12:43:57.500Z,20.11
2019-01-19T12:44:57.924Z,20.13
2019-01-19T12:45:57.245Z,20.11
2019-01-19T12:46:57.716Z,20.11
2019-01-19T12:47:57.659Z,20.12
2019-01-19T12:48:57.739Z,20.13
2019-01-19T12:49:58.390Z,20.11
2019-01-19T12:50:57.743Z,20.13
2019-01-19T12:51:58.296Z,20.12
2019-01-19T12:52:57.760Z,20.12
2019-01-19T12:53:57.902Z,20.12
2019-01-19T12:54:57.527Z,20.12
2019-01-19T12:55:57.399Z,20.09